createdAt,value
2022-08-28T00:01:58.209Z,19.61
2022-08-28T00:04:24.819Z,19.70
2022-08-28T00:06:51.394Z,19.58
2022-08-28T00:09:18.132Z,19.53
2022-08-28T00:11:44.610Z,19.50
2022-08-28T00:14:11.404Z,19.43
2022-08-28T00:16:38.235Z,19.48
2022-08-28T00:19:06.005Z,19.49
2022-08-28T00:21:33.415Z,19.43
2022-08-28T00:24:00.648Z,19.25
2022-08-28T00:26:45.751Z,19.29
2022-08-28T00:29:12.250Z,19.42
2022-08-28T00:31:39.666Z,19.41
2022-08-28T00:34:08.030Z,19.55
2022-08-28T00:36:35.276Z,19.50
2022-08-28T00:39:01.971Z,19.63
2022-08-28T00:41:31.288Z,19.62
2022-08-28T00:44:20.149Z,19.74
2022-08-28T00:46:48.932Z,19.40
2022-08-28T00:49:19.311Z,19.25
2022-08-28T00:52:17.197Z,19.15
2022-08-28T00:54:58.559Z,19.01
2022-08-28T00:57:36.295Z,18.98
2022-08-28T01:00:08.057Z,19.09
2022-08-28T01:02:34.866Z,19.26
2022-08-28T01:05:01.823Z,19.21
2022-08-28T01:07:28.634Z,19.08
2022-08-28T01:09:55.869Z,19.44
2022-08-28T01:12:26.328Z,19.43
2022-08-28T01:14:58.532Z,19.35
2022-08-28T01:17:28.576Z,19.28
2022-08-28T01:19:59.875Z,19.28
2022-08-28T01:22:32.400Z,19.26
2022-08-28T01:25:01.229Z,19.34
2022-08-28T01:27:27.791Z,19.16
2022-08-28T01:29:54.375Z,19.23
2022-08-28T01:32:35.944Z,19.38
2022-08-28T01:35:04.661Z,19.50
2022-08-28T01:37:31.936Z,19.51
2022-08-28T01:39:58.472Z,19.45
2022-08-28T01:42:25.986Z,19.55
2022-08-28T01:44:54.137Z,19.52
2022-08-28T01:47:21.620Z,19.68
2022-08-28T01:49:48.288Z,19.61
2022-08-28T01:52:14.798Z,19.58
2022-08-28T01:54:42.260Z,19.45
2022-08-28T01:57:08.897Z,19.39
2022-08-28T01:59:35.464Z,19.47
2022-08-28T02:02:02.037Z,19.44
2022-08-28T02:04:32.329Z,19.39
2022-08-28T02:06:59.567Z,19.48
2022-08-28T02:09:26.063Z,19.61
2022-08-28T02:11:52.684Z,19.42
2022-08-28T02:14:19.320Z,19.21
2022-08-28T02:16:46.497Z,19.40
2022-08-28T02:19:12.955Z,19.07
2022-08-28T02:21:40.105Z,19.18
2022-08-28T02:24:07.024Z,19.22
2022-08-28T02:26:33.493Z,19.13
2022-08-28T02:29:00.149Z,19.25
2022-08-28T02:31:27.639Z,19.18
2022-08-28T02:33:54.675Z,18.99
2022-08-28T02:36:23.008Z,18.97
2022-08-28T02:38:54.115Z,18.91
2022-08-28T02:41:24.018Z,18.77
2022-08-28T02:43:50.574Z,18.75
2022-08-28T02:46:17.226Z,18.82
2022-08-28T02:48:44.755Z,18.97
2022-08-28T02:51:14.136Z,19.09
2022-08-28T02:53:41.997Z,19.12
2022-08-28T02:56:09.614Z,19.28
2022-08-28T02:58:36.359Z,19.34
2022-08-28T03:01:07.010Z,19.20
2022-08-28T03:03:33.939Z,19.32
2022-08-28T03:06:02.591Z,19.38
2022-08-28T03:08:31.593Z,19.16
2022-08-28T03:10:59.203Z,19.27
2022-08-28T03:13:27.250Z,19.20
2022-08-28T03:15:55.594Z,19.34
2022-08-28T03:18:24.402Z,19.39
2022-08-28T03:20:52.457Z,19.29
2022-08-28T03:23:27.752Z,19.41
2022-08-28T03:25:55.478Z,19.32
2022-08-28T03:28:22.408Z,19.41
2022-08-28T03:30:49.703Z,19.32
2022-08-28T03:33:16.992Z,19.21
2022-08-28T03:35:43.730Z,19.31
2022-08-28T03:38:11.656Z,19.43
2022-08-28T03:40:42.640Z,19.20
2022-08-28T03:43:17.820Z,19.24
2022-08-28T03:45:56.560Z,19.24
2022-08-28T03:48:24.361Z,19.28
2022-08-28T03:50:53.418Z,19.23
2022-08-28T03:53:23.678Z,19.32
2022-08-28T03:55:50.862Z,19.36
2022-08-28T03:58:19.008Z,19.26
2022-08-28T04:00:46.756Z,19.28
2022-08-28T04:03:13.595Z,19.46
2022-08-28T04:05:41.910Z,19.28
2022-08-28T04:08:08.968Z,18.87
2022-08-28T04:10:36.687Z,18.82
2022-08-28T04:13:03.377Z,18.73
2022-08-28T04:15:29.936Z,18.92
2022-08-28T04:17:56.553Z,18.95
2022-08-28T04:20:23.046Z,18.99
2022-08-28T04:22:49.952Z,19.02
2022-08-28T04:25:22.790Z,19.17
2022-08-28T04:27:50.557Z,19.21
2022-08-28T04:30:18.788Z,19.37
2022-08-28T04:32:45.604Z,19.27
2022-08-28T04:35:13.633Z,19.34
2022-08-28T04:37:41.216Z,19.22
2022-08-28T04:40:10.887Z,19.13
2022-08-28T04:42:40.046Z,19.16
2022-08-28T04:45:07.483Z,19.31
2022-08-28T04:47:38.835Z,19.23
2022-08-28T04:50:07.381Z,19.18
2022-08-28T04:52:33.850Z,19.26
2022-08-28T04:55:00.506Z,19.32
2022-08-28T04:57:26.997Z,19.44
2022-08-28T04:59:53.514Z,19.45
2022-08-28T05:02:20.192Z,19.21
2022-08-28T05:04:47.312Z,19.22
2022-08-28T05:07:14.058Z,19.28
2022-08-28T05:09:40.548Z,19.36
2022-08-28T05:12:07.099Z,19.34
2022-08-28T05:14:33.659Z,19.40
2022-08-28T05:17:00.137Z,19.39
2022-08-28T05:19:27.880Z,19.39
2022-08-28T05:21:54.487Z,19.60
2022-08-28T05:24:21.926Z,19.61
2022-08-28T05:26:48.514Z,19.51
2022-08-28T05:29:16.751Z,19.54
2022-08-28T05:31:43.864Z,19.57
2022-08-28T05:34:10.706Z,19.45
2022-08-28T05:36:38.628Z,19.43
2022-08-28T05:39:08.037Z,19.49
2022-08-28T05:41:34.669Z,19.46
2022-08-28T05:44:04.735Z,19.31
2022-08-28T05:46:31.725Z,19.51
2022-08-28T05:49:00.323Z,19.37
2022-08-28T05:51:27.853Z,19.57
2022-08-28T05:53:57.200Z,19.55
2022-08-28T05:56:29.565Z,19.56
2022-08-28T05:58:57.343Z,19.70
2022-08-28T06:01:29.167Z,19.53
2022-08-28T06:03:59.070Z,19.52
2022-08-28T06:06:27.663Z,19.63
2022-08-28T06:09:02.512Z,19.68
2022-08-28T06:11:30.865Z,19.80
2022-08-28T06:14:01.569Z,19.65
2022-08-28T06:16:29.346Z,19.53
2022-08-28T06:18:55.954Z,19.58
2022-08-28T06:21:22.410Z,19.67
2022-08-28T06:23:48.860Z,19.69
2022-08-28T06:26:15.366Z,19.76
2022-08-28T06:28:41.945Z,19.83
2022-08-28T06:31:24.260Z,20.01
2022-08-28T06:33:56.186Z,19.94
2022-08-28T06:36:23.801Z,19.94
2022-08-28T06:38:50.476Z,19.69
2022-08-28T06:41:17.065Z,19.70
2022-08-28T06:43:43.548Z,19.54
2022-08-28T06:46:10.149Z,19.93
2022-08-28T06:48:36.954Z,20.05
2022-08-28T06:51:07.382Z,19.95
2022-08-28T06:53:33.919Z,20.10
2022-08-28T06:56:08.425Z,20.05
2022-08-28T06:58:38.692Z,19.91
2022-08-28T07:01:22.545Z,20.00
2022-08-28T07:03:51.353Z,20.09
2022-08-28T07:06:19.159Z,20.18
2022-08-28T07:08:46.038Z,20.33
2022-08-28T07:11:13.990Z,20.38
2022-08-28T07:13:42.092Z,20.32
2022-08-28T07:16:09.403Z,20.34
2022-08-28T07:18:36.080Z,20.13
2022-08-28T07:21:02.760Z,20.08
2022-08-28T07:23:30.998Z,20.23
2022-08-28T07:25:57.793Z,20.47
2022-08-28T07:28:24.504Z,20.60
2022-08-28T07:30:58.872Z,20.55
2022-08-28T07:33:27.668Z,20.47
2022-08-28T07:35:54.712Z,20.64
2022-08-28T07:38:21.323Z,20.66
2022-08-28T07:40:48.184Z,20.53
2022-08-28T07:43:33.555Z,20.59
2022-08-28T07:46:01.796Z,20.79
2022-08-28T07:48:28.393Z,20.74
2022-08-28T07:50:54.954Z,20.70
2022-08-28T07:53:21.758Z,20.36
2022-08-28T07:55:51.446Z,20.58
2022-08-28T07:58:19.326Z,20.63
2022-08-28T08:00:46.252Z,20.24
2022-08-28T08:03:14.999Z,20.26
2022-08-28T08:05:41.551Z,20.59
2022-08-28T08:08:08.311Z,20.79
2022-08-28T08:10:34.896Z,20.79
2022-08-28T08:13:01.419Z,20.77
2022-08-28T08:15:31.248Z,20.89
2022-08-28T08:17:57.929Z,21.12
2022-08-28T08:20:24.377Z,21.31
2022-08-28T08:22:50.841Z,20.88
2022-08-28T08:25:17.630Z,21.25
2022-08-28T08:27:44.101Z,21.43
2022-08-28T08:30:11.670Z,21.74
2022-08-28T08:32:40.160Z,21.78
2022-08-28T08:35:07.358Z,21.71
2022-08-28T08:37:34.591Z,21.80
2022-08-28T08:40:01.143Z,21.72
2022-08-28T08:42:31.281Z,21.94
2022-08-28T08:44:59.981Z,21.84
2022-08-28T08:47:43.475Z,22.15
2022-08-28T08:50:32.306Z,22.14
2022-08-28T08:53:17.404Z,22.45
2022-08-28T08:55:47.291Z,23.00
2022-08-28T08:58:17.490Z,22.86
2022-08-28T09:01:10.438Z,22.73
2022-08-28T09:03:44.132Z,22.74
2022-08-28T09:06:21.358Z,22.87
2022-08-28T09:08:54.101Z,23.04
2022-08-28T09:11:44.662Z,23.08
2022-08-28T09:14:26.959Z,23.30
2022-08-28T09:16:56.981Z,23.26
2022-08-28T09:19:23.484Z,23.41
2022-08-28T09:21:51.873Z,23.83
2022-08-28T09:24:25.250Z,24.06
2022-08-28T09:27:01.567Z,24.52
2022-08-28T09:29:32.052Z,24.73
2022-08-28T09:32:14.971Z,24.92
2022-08-28T09:35:00.198Z,24.72
2022-08-28T09:37:28.049Z,24.68
2022-08-28T09:40:13.452Z,24.97
2022-08-28T09:42:58.588Z,25.93
2022-08-28T09:45:28.337Z,26.14
2022-08-28T09:47:57.336Z,26.40
2022-08-28T09:50:39.281Z,26.80
2022-08-28T09:53:11.712Z,26.78
2022-08-28T09:55:56.941Z,26.78
2022-08-28T09:58:38.924Z,27.69
2022-08-28T10:01:28.242Z,28.21
2022-08-28T10:04:23.364Z,28.81
2022-08-28T10:06:58.038Z,30.57
2022-08-28T10:09:56.457Z,32.69
2022-08-28T10:12:42.880Z,32.74
2022-08-28T10:15:21.514Z,34.08
2022-08-28T10:18:10.354Z,32.83
2022-08-28T10:20:54.937Z,34.63
2022-08-28T10:24:00.210Z,36.29
2022-08-28T10:26:49.446Z,35.82
2022-08-28T10:29:33.894Z,35.07
2022-08-28T10:32:20.058Z,34.13
2022-08-28T10:35:15.815Z,34.67
2022-08-28T10:38:00.059Z,34.06
2022-08-28T10:40:32.261Z,33.76
2022-08-28T10:43:08.487Z,31.30
2022-08-28T10:45:35.813Z,30.62
2022-08-28T10:48:22.465Z,29.99
2022-08-28T10:51:13.625Z,29.39
2022-08-28T10:53:55.708Z,29.60
2022-08-28T10:56:28.717Z,28.72
2022-08-28T10:58:59.069Z,29.81
2022-08-28T11:01:35.450Z,30.16
2022-08-28T11:04:08.396Z,30.55
2022-08-28T11:06:43.188Z,30.86
2022-08-28T11:09:24.784Z,30.12
2022-08-28T11:12:01.754Z,29.64
2022-08-28T11:14:31.001Z,31.29
2022-08-28T11:17:02.011Z,32.51
2022-08-28T11:19:52.143Z,30.92
2022-08-28T11:22:39.474Z,30.43
2022-08-28T11:25:41.555Z,30.80
2022-08-28T11:28:15.145Z,31.48
2022-08-28T11:30:42.888Z,33.20
2022-08-28T11:33:47.736Z,33.71
2022-08-28T11:36:20.175Z,34.19
2022-08-28T11:38:55.862Z,35.70
2022-08-28T11:41:27.533Z,36.03
2022-08-28T11:44:02.813Z,36.82
2022-08-28T11:46:29.368Z,37.01
2022-08-28T11:48:58.720Z,35.80
2022-08-28T11:51:40.962Z,34.91
2022-08-28T11:54:26.425Z,36.00
2022-08-28T11:57:23.262Z,35.88
2022-08-28T12:00:05.094Z,35.22
2022-08-28T12:02:40.501Z,35.50
2022-08-28T12:05:15.966Z,35.34
2022-08-28T12:07:45.660Z,36.30
2022-08-28T12:10:27.551Z,35.10
2022-08-28T12:13:01.547Z,34.91
2022-08-28T12:15:27.949Z,33.48
2022-08-28T12:18:02.853Z,35.43
2022-08-28T12:20:38.115Z,34.87
2022-08-28T12:23:23.471Z,35.76
2022-08-28T12:26:07.043Z,35.95
2022-08-28T12:28:44.118Z,37.38
2022-08-28T12:31:45.644Z,36.62
2022-08-28T12:34:36.765Z,36.04
2022-08-28T12:37:05.623Z,38.08
2022-08-28T12:39:33.757Z,36.40
2022-08-28T12:42:03.416Z,36.66
2022-08-28T12:44:33.488Z,36.49
2022-08-28T12:47:00.212Z,37.41
2022-08-28T12:49:33.060Z,38.69
2022-08-28T12:52:18.942Z,38.84
2022-08-28T12:54:47.097Z,39.19
2022-08-28T12:57:17.496Z,39.10
2022-08-28T12:59:54.130Z,37.75
2022-08-28T13:02:31.078Z,36.58
2022-08-28T13:05:01.878Z,35.85
2022-08-28T13:07:45.292Z,36.65
2022-08-28T13:10:25.416Z,37.90
2022-08-28T13:13:20.859Z,37.46
2022-08-28T13:16:13.380Z,34.87
2022-08-28T13:18:50.430Z,33.15
2022-08-28T13:21:32.574Z,31.76
2022-08-28T13:24:21.251Z,30.89
2022-08-28T13:26:50.352Z,31.04
2022-08-28T13:29:22.826Z,29.51
2022-08-28T13:31:59.770Z,29.94
2022-08-28T13:34:29.203Z,30.25
2022-08-28T13:36:59.761Z,30.46
2022-08-28T13:39:28.903Z,29.79
2022-08-28T13:42:04.760Z,29.71
2022-08-28T13:44:40.766Z,29.74
2022-08-28T13:47:07.348Z,29.65
2022-08-28T13:49:35.108Z,30.26
2022-08-28T13:52:05.200Z,31.38
2022-08-28T13:54:31.784Z,32.78
2022-08-28T13:56:58.321Z,32.61
2022-08-28T13:59:24.772Z,32.56
2022-08-28T14:02:14.629Z,33.44
2022-08-28T14:04:41.680Z,34.19
2022-08-28T14:07:08.365Z,34.82
2022-08-28T14:09:35.906Z,34.99
2022-08-28T14:12:03.922Z,34.04
2022-08-28T14:14:32.175Z,34.10
2022-08-28T14:16:59.215Z,32.98
2022-08-28T14:19:25.719Z,34.04
2022-08-28T14:21:52.718Z,32.89
2022-08-28T14:24:20.021Z,33.15
2022-08-28T14:26:47.235Z,33.72
2022-08-28T14:29:15.525Z,34.50
2022-08-28T14:31:43.958Z,33.26
2022-08-28T14:34:16.831Z,32.79
2022-08-28T14:36:44.102Z,33.05
2022-08-28T14:39:12.366Z,32.90
2022-08-28T14:41:44.194Z,32.51
2022-08-28T14:44:10.676Z,31.11
2022-08-28T14:46:37.966Z,31.84
2022-08-28T14:49:09.642Z,32.99
2022-08-28T14:51:38.581Z,32.36
2022-08-28T14:54:05.753Z,32.08
2022-08-28T14:56:32.608Z,32.29
2022-08-28T14:59:00.769Z,32.27
2022-08-28T15:01:40.837Z,32.14
2022-08-28T15:04:11.332Z,32.47
2022-08-28T15:06:38.569Z,31.66
2022-08-28T15:09:05.577Z,31.87
2022-08-28T15:11:32.233Z,31.75
2022-08-28T15:13:58.758Z,31.40
2022-08-28T15:16:32.039Z,30.98
2022-08-28T15:18:59.910Z,30.77
2022-08-28T15:21:32.811Z,30.82
2022-08-28T15:24:01.242Z,30.91
2022-08-28T15:26:29.112Z,30.61
2022-08-28T15:28:58.231Z,30.35
2022-08-28T15:31:25.106Z,29.93
2022-08-28T15:33:51.932Z,30.01
2022-08-28T15:36:19.545Z,29.73
2022-08-28T15:39:05.019Z,29.54
2022-08-28T15:41:31.782Z,29.28
2022-08-28T15:44:01.723Z,29.06
2022-08-28T15:46:31.428Z,28.93
2022-08-28T15:48:58.314Z,28.90
2022-08-28T15:51:26.084Z,28.81
2022-08-28T15:53:52.751Z,28.54
2022-08-28T15:56:19.424Z,28.44
2022-08-28T15:58:46.143Z,27.95
2022-08-28T16:01:13.485Z,27.52
2022-08-28T16:03:40.269Z,27.66
2022-08-28T16:06:16.146Z,27.64
2022-08-28T16:08:43.668Z,27.84
2022-08-28T16:11:11.913Z,27.80
2022-08-28T16:13:38.433Z,27.70
2022-08-28T16:16:05.025Z,27.82
2022-08-28T16:18:31.541Z,27.68
2022-08-28T16:21:00.476Z,27.48
2022-08-28T16:23:30.480Z,27.53
2022-08-28T16:25:56.950Z,27.49
2022-08-28T16:28:23.393Z,27.42
2022-08-28T16:30:50.007Z,27.34
2022-08-28T16:33:20.089Z,27.34
2022-08-28T16:35:54.897Z,27.29
2022-08-28T16:38:22.541Z,27.26
2022-08-28T16:40:49.280Z,27.27
2022-08-28T16:43:16.063Z,27.13
2022-08-28T16:45:46.449Z,27.10
2022-08-28T16:48:14.734Z,27.14
2022-08-28T16:50:42.645Z,27.07
2022-08-28T16:53:09.993Z,26.86
2022-08-28T16:55:37.185Z,26.71
2022-08-28T16:58:04.360Z,26.88
2022-08-28T17:00:31.427Z,26.98
2022-08-28T17:02:57.984Z,26.71
2022-08-28T17:05:24.944Z,26.75
2022-08-28T17:07:51.986Z,26.77
2022-08-28T17:10:21.688Z,26.65
2022-08-28T17:12:48.399Z,26.29
2022-08-28T17:15:16.024Z,26.27
2022-08-28T17:17:42.641Z,26.34
2022-08-28T17:20:30.563Z,26.46
2022-08-28T17:22:57.102Z,26.34
2022-08-28T17:25:24.617Z,26.30
2022-08-28T17:27:51.217Z,26.23
2022-08-28T17:30:19.254Z,26.11
2022-08-28T17:32:46.347Z,26.12
2022-08-28T17:35:15.181Z,26.00
2022-08-28T17:37:43.075Z,26.07
2022-08-28T17:40:12.564Z,26.16
2022-08-28T17:42:39.456Z,26.16
2022-08-28T17:45:08.394Z,26.24
2022-08-28T17:47:35.087Z,25.89
2022-08-28T17:50:02.573Z,25.93
2022-08-28T17:52:29.611Z,25.92
2022-08-28T17:54:56.854Z,25.87
2022-08-28T17:57:24.739Z,25.89
2022-08-28T17:59:51.267Z,26.00
2022-08-28T18:02:18.075Z,25.73
2022-08-28T18:04:44.947Z,25.67
2022-08-28T18:07:11.417Z,25.65
2022-08-28T18:09:38.065Z,25.49
2022-08-28T18:12:06.330Z,25.50
2022-08-28T18:14:38.774Z,25.59
2022-08-28T18:17:05.335Z,25.50
2022-08-28T18:19:34.069Z,25.33
2022-08-28T18:22:00.636Z,25.31
2022-08-28T18:24:27.491Z,25.28
2022-08-28T18:26:53.977Z,25.29
2022-08-28T18:29:20.459Z,25.23
2022-08-28T18:31:46.955Z,25.35
2022-08-28T18:34:13.504Z,25.27
2022-08-28T18:36:41.566Z,25.32
2022-08-28T18:39:09.307Z,25.32
2022-08-28T18:41:43.058Z,25.31
2022-08-28T18:44:12.527Z,25.26
2022-08-28T18:46:39.082Z,25.18
2022-08-28T18:49:05.647Z,25.27
2022-08-28T18:51:32.638Z,25.24
2022-08-28T18:54:03.334Z,25.13
2022-08-28T18:56:32.468Z,25.11
2022-08-28T18:59:00.396Z,25.01
2022-08-28T19:01:26.975Z,25.02
2022-08-28T19:03:54.591Z,24.98
2022-08-28T19:06:21.951Z,24.97
2022-08-28T19:08:48.559Z,24.86
2022-08-28T19:11:15.942Z,24.72
2022-08-28T19:13:43.611Z,24.74
2022-08-28T19:16:14.899Z,24.78
2022-08-28T19:18:41.363Z,24.66
2022-08-28T19:21:12.238Z,24.57
2022-08-28T19:23:44.590Z,24.69
2022-08-28T19:26:24.566Z,24.74
2022-08-28T19:28:51.547Z,24.62
2022-08-28T19:31:18.327Z,24.60
2022-08-28T19:33:46.615Z,24.56
2022-08-28T19:36:13.723Z,24.45
2022-08-28T19:38:40.902Z,24.37
2022-08-28T19:41:09.538Z,24.37
2022-08-28T19:43:43.140Z,24.23
2022-08-28T19:46:18.359Z,24.33
2022-08-28T19:48:47.783Z,24.21
2022-08-28T19:51:22.358Z,24.07
2022-08-28T19:53:56.776Z,24.08
2022-08-28T19:56:27.090Z,24.04
2022-08-28T19:58:54.860Z,24.02
2022-08-28T20:01:21.449Z,23.92
2022-08-28T20:03:47.943Z,23.89
2022-08-28T20:06:14.424Z,23.80
2022-08-28T20:08:40.969Z,23.78
2022-08-28T20:11:07.759Z,23.80
2022-08-28T20:13:34.405Z,23.69
2022-08-28T20:16:05.541Z,23.74
2022-08-28T20:18:33.372Z,23.56
2022-08-28T20:21:00.178Z,23.55
2022-08-28T20:23:26.670Z,23.24
2022-08-28T20:25:53.140Z,23.10
2022-08-28T20:28:19.889Z,23.11
2022-08-28T20:30:46.930Z,23.04
2022-08-28T20:33:14.005Z,22.97
2022-08-28T20:35:40.685Z,22.82
2022-08-28T20:38:07.244Z,22.82
2022-08-28T20:40:33.878Z,22.75
2022-08-28T20:43:00.728Z,22.62
2022-08-28T20:45:27.403Z,22.58
2022-08-28T20:47:54.041Z,22.67
2022-08-28T20:50:20.925Z,22.68
2022-08-28T20:52:47.422Z,22.65
2022-08-28T20:55:14.812Z,22.82
2022-08-28T20:57:41.711Z,22.75
2022-08-28T21:00:10.116Z,22.69
2022-08-28T21:02:37.392Z,22.70
2022-08-28T21:05:04.603Z,22.47
2022-08-28T21:07:33.462Z,22.47
2022-08-28T21:10:05.259Z,22.46
2022-08-28T21:12:33.655Z,22.50
2022-08-28T21:15:00.340Z,22.49
2022-08-28T21:17:28.896Z,22.28
2022-08-28T21:19:59.051Z,22.24
2022-08-28T21:22:25.630Z,22.01
2022-08-28T21:24:52.148Z,22.09
2022-08-28T21:27:18.795Z,22.09
2022-08-28T21:29:46.157Z,22.09
2022-08-28T21:32:13.223Z,21.92
2022-08-28T21:34:39.876Z,21.87
2022-08-28T21:37:06.539Z,21.72
2022-08-28T21:39:33.249Z,21.79
2022-08-28T21:41:59.724Z,21.81
2022-08-28T21:44:26.359Z,21.71
2022-08-28T21:46:52.826Z,21.52
2022-08-28T21:49:19.401Z,21.54
2022-08-28T21:51:45.898Z,21.55
2022-08-28T21:54:12.481Z,21.43
2022-08-28T21:56:39.000Z,21.48
2022-08-28T21:59:05.480Z,21.40
2022-08-28T22:01:32.025Z,21.38
2022-08-28T22:03:58.931Z,21.35
2022-08-28T22:06:26.421Z,21.35
2022-08-28T22:08:53.675Z,21.28
2022-08-28T22:11:21.129Z,21.25
2022-08-28T22:13:52.312Z,21.22
2022-08-28T22:16:19.000Z,21.16
2022-08-28T22:18:45.552Z,21.20
2022-08-28T22:21:36.264Z,21.19
2022-08-28T22:24:02.983Z,21.05
2022-08-28T22:26:29.676Z,20.95
2022-08-28T22:28:56.823Z,20.96
2022-08-28T22:31:24.097Z,20.85
2022-08-28T22:33:51.338Z,20.80
2022-08-28T22:36:18.264Z,20.83
2022-08-28T22:38:47.107Z,20.84
2022-08-28T22:41:20.597Z,20.89
2022-08-28T22:43:51.589Z,20.83
2022-08-28T22:46:20.664Z,20.85
2022-08-28T22:48:47.667Z,20.74
2022-08-28T22:51:18.395Z,20.62
2022-08-28T22:53:44.983Z,20.62
2022-08-28T22:56:12.502Z,20.52
2022-08-28T22:58:39.296Z,20.51
2022-08-28T23:01:14.353Z,20.52
2022-08-28T23:03:41.018Z,20.45
2022-08-28T23:06:08.023Z,20.50
2022-08-28T23:08:34.869Z,20.60
2022-08-28T23:11:02.163Z,20.57
2022-08-28T23:13:30.338Z,20.43
2022-08-28T23:15:57.194Z,20.39
2022-08-28T23:18:23.976Z,20.32
2022-08-28T23:20:51.516Z,20.19
2022-08-28T23:23:18.977Z,20.15
2022-08-28T23:25:45.440Z,20.15
2022-08-28T23:28:12.635Z,20.14
2022-08-28T23:30:41.252Z,20.15
2022-08-28T23:33:18.567Z,20.19
2022-08-28T23:35:49.791Z,19.98
2022-08-28T23:38:16.426Z,20.00
2022-08-28T23:40:43.142Z,20.00
2022-08-28T23:43:10.195Z,19.98
2022-08-28T23:45:39.403Z,20.00
2022-08-28T23:48:06.295Z,20.10
2022-08-28T23:50:32.767Z,20.15
2022-08-28T23:52:59.855Z,20.05
2022-08-28T23:55:27.325Z,20.04
2022-08-28T23:57:54.331Z,20.02
